PWSweather.com
Personal Weather Stations
Station Observations
IBAVARIA50
Munich, PlieningDE 85652

MunichPlieningDE 85652

Lat: 48.19916153, Lon: 11.79794312

Elevation: 504

Station Type: Davis Vantage Pro2

http://wetterstation-pliening.info

Latest ConditionsUpdated 1:55:05 PM GMT+01:01 Monday, Jun 24, 2019
Currently Today's Max Today's Min Today's Average
Temperature 81.7°F27.6°C 81.7°F27.6°C 61.7°F16.5°C 70.2°F21.2°C
Dew Point 62.3°F16.8°C 65.8°F18.8°C 59.5°F15.3°C 62.4°F16.9°C
Winds 10.0 mph E16.1 kmh E 15.0 mph -24.1 kmh - - 4.9 mph 7.9 kmh
Wind Gusts 13.0 mph20.9 kmh 19.0 mph30.6 kmh - -
Humidity 52% 93% 52% 78%
Pressure 30.05 in1017.6 mb 30.07 in1018.3 mb 30.05 in1017.6 mb -
Hour Temp Dew Point Humidity Winds Wind Gusts Pressure Precip Precip Rate Daily Precip Total
01:55 PM 81.7°F27.6°C 62.3°F16.8°C 52% 10.0 mph E16.1 kmh E 13.0 mph20.9 kmh 30.05 in1017.6 mb 0.00 in0.0 mm 0.00 in0.0 mm 0.00 in0.0 mm
01:50 PM 81.6°F27.6°C 65.3°F18.5°C 58% 11.0 mph E17.7 kmh E 14.0 mph22.5 kmh 30.05 in1017.6 mb 0.00 in0.0 mm 0.00 in0.0 mm 0.00 in0.0 mm
01:45 PM 81.6°F27.6°C 63.3°F17.4°C 54% 10.0 mph E16.1 kmh E 13.0 mph20.9 kmh 30.05 in1017.6 mb 0.00 in0.0 mm 0.00 in0.0 mm 0.00 in0.0 mm
01:40 PM 81.7°F27.6°C 63.4°F17.4°C 54% 8.0 mph ENE12.9 kmh ENE 14.0 mph22.5 kmh 30.05 in1017.6 mb 0.00 in0.0 mm 0.00 in0.0 mm 0.00 in0.0 mm
01:35 PM 81.7°F27.6°C 63.9°F17.7°C 55% 11.0 mph E17.7 kmh E 15.0 mph24.1 kmh 30.05 in1017.6 mb 0.00 in0.0 mm 0.00 in0.0 mm 0.00 in0.0 mm
01:30 PM 81.5°F27.5°C 63.7°F17.6°C 55% 11.0 mph ENE17.7 kmh ENE 14.0 mph22.5 kmh 30.05 in1017.6 mb 0.00 in0.0 mm 0.00 in0.0 mm 0.00 in0.0 mm
01:25 PM 81.3°F27.4°C 65.0°F18.3°C 58% 11.0 mph ENE17.7 kmh ENE 12.0 mph19.3 kmh 30.05 in1017.6 mb 0.00 in0.0 mm 0.00 in0.0 mm 0.00 in0.0 mm
01:20 PM 80.6°F27.0°C 63.9°F17.7°C 57% 5.0 mph ESE8.0 kmh ESE 14.0 mph22.5 kmh 30.06 in1017.9 mb 0.00 in0.0 mm 0.00 in0.0 mm 0.00 in0.0 mm
01:15 PM 80.5°F26.9°C 63.8°F17.7°C 57% 12.0 mph E19.3 kmh E 13.0 mph20.9 kmh 30.06 in1017.9 mb 0.00 in0.0 mm 0.00 in0.0 mm 0.00 in0.0 mm
01:10 PM 80.7°F27.1°C 63.0°F17.2°C 55% 10.0 mph ENE16.1 kmh ENE 15.0 mph24.1 kmh 30.05 in1017.6 mb 0.00 in0.0 mm 0.00 in0.0 mm 0.00 in0.0 mm
01:05 PM 80.9°F27.2°C 65.2°F18.4°C 59% 4.0 mph SE6.4 kmh SE 11.0 mph17.7 kmh 30.05 in1017.6 mb 0.00 in0.0 mm 0.00 in0.0 mm 0.00 in0.0 mm
01:00 PM 80.5°F26.9°C 63.3°F17.4°C 56% 5.0 mph NE8.0 kmh NE 13.0 mph20.9 kmh 30.06 in1017.9 mb 0.00 in0.0 mm 0.00 in0.0 mm 0.00 in0.0 mm
12:55 PM 80.4°F26.9°C 63.7°F17.6°C 57% 10.0 mph ENE16.1 kmh ENE 14.0 mph22.5 kmh 30.06 in1017.9 mb 0.00 in0.0 mm 0.00 in0.0 mm 0.00 in0.0 mm
12:50 PM 80.4°F26.9°C 65.2°F18.4°C 60% 9.0 mph ESE14.5 kmh ESE 14.0 mph22.5 kmh 30.05 in1017.6 mb 0.00 in0.0 mm 0.00 in0.0 mm 0.00 in0.0 mm
12:45 PM 80.2°F26.8°C 63.0°F17.2°C 56% 13.0 mph E20.9 kmh E 15.0 mph24.1 kmh 30.06 in1017.9 mb 0.00 in0.0 mm 0.00 in0.0 mm 0.00 in0.0 mm
12:40 PM 80.2°F26.8°C 63.0°F17.2°C 56% 6.0 mph ENE9.7 kmh ENE 14.0 mph22.5 kmh 30.06 in1017.9 mb 0.00 in0.0 mm 0.00 in0.0 mm 0.00 in0.0 mm
12:35 PM 80.0°F26.7°C 62.8°F17.1°C 56% 15.0 mph E24.1 kmh E 15.0 mph24.1 kmh 30.06 in1017.9 mb 0.00 in0.0 mm 0.00 in0.0 mm 0.00 in0.0 mm
12:30 PM 79.8°F26.6°C 64.6°F18.1°C 60% 4.0 mph ENE6.4 kmh ENE 16.0 mph25.7 kmh 30.06 in1017.9 mb 0.00 in0.0 mm 0.00 in0.0 mm 0.00 in0.0 mm
12:25 PM 79.8°F26.6°C 63.6°F17.6°C 58% 12.0 mph E19.3 kmh E 14.0 mph22.5 kmh 30.05 in1017.6 mb 0.00 in0.0 mm 0.00 in0.0 mm 0.00 in0.0 mm
12:20 PM 79.5°F26.4°C 63.4°F17.4°C 58% 12.0 mph E19.3 kmh E 15.0 mph24.1 kmh 30.06 in1017.9 mb 0.00 in0.0 mm 0.00 in0.0 mm 0.00 in0.0 mm
12:15 PM 79.7°F26.5°C 63.5°F17.5°C 58% 5.0 mph E8.0 kmh E 14.0 mph22.5 kmh 30.06 in1017.9 mb 0.00 in0.0 mm 0.00 in0.0 mm 0.00 in0.0 mm
12:10 PM 79.7°F26.5°C 63.5°F17.5°C 58% 8.0 mph E12.9 kmh E 12.0 mph19.3 kmh 30.06 in1017.9 mb 0.00 in0.0 mm 0.00 in0.0 mm 0.00 in0.0 mm
12:05 PM 79.5°F26.4°C 63.8°F17.7°C 59% 4.0 mph E6.4 kmh E 15.0 mph24.1 kmh 30.06 in1017.9 mb 0.00 in0.0 mm 0.00 in0.0 mm 0.00 in0.0 mm
12:00 PM 79.4°F26.3°C 63.7°F17.6°C 59% 11.0 mph E17.7 kmh E 15.0 mph24.1 kmh 30.06 in1017.9 mb 0.00 in0.0 mm 0.00 in0.0 mm 0.00 in0.0 mm
11:55 AM 79.6°F26.4°C 64.4°F18.0°C 60% 5.0 mph ESE8.0 kmh ESE 14.0 mph22.5 kmh 30.06 in1017.9 mb 0.00 in0.0 mm 0.00 in0.0 mm 0.00 in0.0 mm
11:50 AM 79.5°F26.4°C 64.3°F17.9°C 60% 9.0 mph SE14.5 kmh SE 13.0 mph20.9 kmh 30.06 in1017.9 mb 0.00 in0.0 mm 0.00 in0.0 mm 0.00 in0.0 mm
11:45 AM 79.2°F26.2°C 64.0°F17.8°C 60% 5.0 mph ESE8.0 kmh ESE 13.0 mph20.9 kmh 30.06 in1017.9 mb 0.00 in0.0 mm 0.00 in0.0 mm 0.00 in0.0 mm
11:40 AM 79.5°F26.4°C 64.3°F17.9°C 60% 4.0 mph N6.4 kmh N 13.0 mph20.9 kmh 30.06 in1017.9 mb 0.00 in0.0 mm 0.00 in0.0 mm 0.00 in0.0 mm
11:35 AM 79.4°F26.3°C 63.7°F17.6°C 59% 6.0 mph NE9.7 kmh NE 13.0 mph20.9 kmh 30.06 in1017.9 mb 0.00 in0.0 mm 0.00 in0.0 mm 0.00 in0.0 mm
11:30 AM 78.7°F25.9°C 64.5°F18.1°C 62% 4.0 mph E6.4 kmh E 12.0 mph19.3 kmh 30.06 in1017.9 mb 0.00 in0.0 mm 0.00 in0.0 mm 0.00 in0.0 mm
11:25 AM 78.3°F25.7°C 64.1°F17.8°C 62% 4.0 mph ESE6.4 kmh ESE 18.0 mph29.0 kmh 30.07 in1018.3 mb 0.00 in0.0 mm 0.00 in0.0 mm 0.00 in0.0 mm
11:20 AM 78.4°F25.8°C 62.8°F17.1°C 59% 10.0 mph ENE16.1 kmh ENE 15.0 mph24.1 kmh 30.07 in1018.3 mb 0.00 in0.0 mm 0.00 in0.0 mm 0.00 in0.0 mm
11:15 AM 78.4°F25.8°C 62.3°F16.8°C 58% 3.0 mph S4.8 kmh S 18.0 mph29.0 kmh 30.07 in1018.3 mb 0.00 in0.0 mm 0.00 in0.0 mm 0.00 in0.0 mm
11:10 AM 78.3°F25.7°C 64.6°F18.1°C 63% 5.0 mph E8.0 kmh E 13.0 mph20.9 kmh 30.07 in1018.3 mb 0.00 in0.0 mm 0.00 in0.0 mm 0.00 in0.0 mm
11:05 AM 78.3°F25.7°C 63.2°F17.3°C 60% 5.0 mph ENE8.0 kmh ENE 16.0 mph25.7 kmh 30.07 in1018.3 mb 0.00 in0.0 mm 0.00 in0.0 mm 0.00 in0.0 mm
11:00 AM 78.2°F25.7°C 62.1°F16.7°C 58% 11.0 mph ENE17.7 kmh ENE 17.0 mph27.4 kmh 30.07 in1018.3 mb 0.00 in0.0 mm 0.00 in0.0 mm 0.00 in0.0 mm
10:55 AM 78.2°F25.7°C 62.6°F17.0°C 59% 8.0 mph E12.9 kmh E 16.0 mph25.7 kmh 30.07 in1018.3 mb 0.00 in0.0 mm 0.00 in0.0 mm 0.00 in0.0 mm
10:50 AM 78.0°F25.6°C 63.4°F17.4°C 61% 6.0 mph E9.7 kmh E 17.0 mph27.4 kmh 30.07 in1018.3 mb 0.00 in0.0 mm 0.00 in0.0 mm 0.00 in0.0 mm
10:45 AM 78.0°F25.6°C 62.4°F16.9°C 59% 9.0 mph E14.5 kmh E 19.0 mph30.6 kmh 30.07 in1018.3 mb 0.00 in0.0 mm 0.00 in0.0 mm 0.00 in0.0 mm
10:40 AM 77.6°F25.3°C 63.0°F17.2°C 61% 6.0 mph SE9.7 kmh SE 17.0 mph27.4 kmh 30.07 in1018.3 mb 0.00 in0.0 mm 0.00 in0.0 mm 0.00 in0.0 mm
10:35 AM 77.5°F25.3°C 62.9°F17.2°C 61% 6.0 mph ESE9.7 kmh ESE 15.0 mph24.1 kmh 30.06 in1017.9 mb 0.00 in0.0 mm 0.00 in0.0 mm 0.00 in0.0 mm
10:30 AM 77.4°F25.2°C 63.7°F17.6°C 63% 15.0 mph ESE24.1 kmh ESE 17.0 mph27.4 kmh 30.07 in1018.3 mb 0.00 in0.0 mm 0.00 in0.0 mm 0.00 in0.0 mm
10:25 AM 77.4°F25.2°C 64.2°F17.9°C 64% 10.0 mph E16.1 kmh E 17.0 mph27.4 kmh 30.07 in1018.3 mb 0.00 in0.0 mm 0.00 in0.0 mm 0.00 in0.0 mm
10:20 AM 77.0°F25.0°C 63.8°F17.7°C 64% 3.0 mph E4.8 kmh E 16.0 mph25.7 kmh 30.07 in1018.3 mb 0.00 in0.0 mm 0.00 in0.0 mm 0.00 in0.0 mm
10:15 AM 76.9°F24.9°C 64.6°F18.1°C 66% 3.0 mph ENE4.8 kmh ENE 14.0 mph22.5 kmh 30.06 in1017.9 mb 0.00 in0.0 mm 0.00 in0.0 mm 0.00 in0.0 mm
10:10 AM 76.7°F24.8°C 64.0°F17.8°C 65% 14.0 mph NE22.5 kmh NE 15.0 mph24.1 kmh 30.07 in1018.3 mb 0.00 in0.0 mm 0.00 in0.0 mm 0.00 in0.0 mm
10:05 AM 76.6°F24.8°C 64.3°F17.9°C 66% 6.0 mph E9.7 kmh E 14.0 mph22.5 kmh 30.07 in1018.3 mb 0.00 in0.0 mm 0.00 in0.0 mm 0.00 in0.0 mm
10:00 AM 77.0°F25.0°C 65.6°F18.7°C 68% 6.0 mph NE9.7 kmh NE 12.0 mph19.3 kmh 30.06 in1017.9 mb 0.00 in0.0 mm 0.00 in0.0 mm 0.00 in0.0 mm
09:55 AM 76.5°F24.7°C 65.5°F18.6°C 69% 3.0 mph E4.8 kmh E 13.0 mph20.9 kmh 30.07 in1018.3 mb 0.00 in0.0 mm 0.00 in0.0 mm 0.00 in0.0 mm
09:50 AM 76.3°F24.6°C 65.7°F18.7°C 70% 9.0 mph E14.5 kmh E 13.0 mph20.9 kmh 30.07 in1018.3 mb 0.00 in0.0 mm 0.00 in0.0 mm 0.00 in0.0 mm
09:45 AM 76.0°F24.4°C 65.8°F18.8°C 71% 6.0 mph ENE9.7 kmh ENE 13.0 mph20.9 kmh 30.07 in1018.3 mb 0.00 in0.0 mm 0.00 in0.0 mm 0.00 in0.0 mm
09:40 AM 75.7°F24.3°C 64.7°F18.2°C 69% 4.0 mph ESE6.4 kmh ESE 12.0 mph19.3 kmh 30.07 in1018.3 mb 0.00 in0.0 mm 0.00 in0.0 mm 0.00 in0.0 mm
09:35 AM 75.6°F24.2°C 63.8°F17.7°C 67% 7.0 mph E11.3 kmh E 17.0 mph27.4 kmh 30.07 in1018.3 mb 0.00 in0.0 mm 0.00 in0.0 mm 0.00 in0.0 mm
09:30 AM 75.3°F24.1°C 64.8°F18.2°C 70% 4.0 mph ENE6.4 kmh ENE 11.0 mph17.7 kmh 30.07 in1018.3 mb 0.00 in0.0 mm 0.00 in0.0 mm 0.00 in0.0 mm
09:25 AM 75.1°F23.9°C 63.7°F17.6°C 68% 11.0 mph NE17.7 kmh NE 13.0 mph20.9 kmh 30.07 in1018.3 mb 0.00 in0.0 mm 0.00 in0.0 mm 0.00 in0.0 mm
09:20 AM 75.1°F23.9°C 64.2°F17.9°C 69% 3.0 mph E4.8 kmh E 12.0 mph19.3 kmh 30.07 in1018.3 mb 0.00 in0.0 mm 0.00 in0.0 mm 0.00 in0.0 mm
09:15 AM 75.2°F24.0°C 63.8°F17.7°C 68% 9.0 mph E14.5 kmh E 12.0 mph19.3 kmh 30.07 in1018.3 mb 0.00 in0.0 mm 0.00 in0.0 mm 0.00 in0.0 mm
09:10 AM 74.9°F23.8°C 64.8°F18.2°C 71% 9.0 mph ENE14.5 kmh ENE 10.0 mph16.1 kmh 30.07 in1018.3 mb 0.00 in0.0 mm 0.00 in0.0 mm 0.00 in0.0 mm
09:05 AM 74.6°F23.7°C 64.5°F18.1°C 71% 5.0 mph ESE8.0 kmh ESE 12.0 mph19.3 kmh 30.07 in1018.3 mb 0.00 in0.0 mm 0.00 in0.0 mm 0.00 in0.0 mm
09:00 AM 74.6°F23.7°C 64.5°F18.1°C 71% 5.0 mph ENE8.0 kmh ENE 11.0 mph17.7 kmh 30.07 in1018.3 mb 0.00 in0.0 mm 0.00 in0.0 mm 0.00 in0.0 mm
08:55 AM 74.6°F23.7°C 64.5°F18.1°C 71% 7.0 mph E11.3 kmh E 11.0 mph17.7 kmh 30.07 in1018.3 mb 0.00 in0.0 mm 0.00 in0.0 mm 0.00 in0.0 mm
08:50 AM 74.5°F23.6°C 64.0°F17.8°C 70% 2.0 mph NE3.2 kmh NE 11.0 mph17.7 kmh 30.07 in1018.3 mb 0.00 in0.0 mm 0.00 in0.0 mm 0.00 in0.0 mm
08:45 AM 74.3°F23.5°C 64.6°F18.1°C 72% 4.0 mph E6.4 kmh E 10.0 mph16.1 kmh 30.07 in1018.3 mb 0.00 in0.0 mm 0.00 in0.0 mm 0.00 in0.0 mm
08:40 AM 74.2°F23.4°C 64.1°F17.8°C 71% 4.0 mph E6.4 kmh E 11.0 mph17.7 kmh 30.07 in1018.3 mb 0.00 in0.0 mm 0.00 in0.0 mm 0.00 in0.0 mm
08:35 AM 73.9°F23.3°C 64.2°F17.9°C 72% 5.0 mph ESE8.0 kmh ESE 12.0 mph19.3 kmh 30.07 in1018.3 mb 0.00 in0.0 mm 0.00 in0.0 mm 0.00 in0.0 mm
08:30 AM 73.5°F23.1°C 63.9°F17.7°C 72% 6.0 mph E9.7 kmh E 11.0 mph17.7 kmh 30.07 in1018.3 mb 0.00 in0.0 mm 0.00 in0.0 mm 0.00 in0.0 mm
08:25 AM 73.6°F23.1°C 64.3°F17.9°C 73% 5.0 mph ESE8.0 kmh ESE 11.0 mph17.7 kmh 30.07 in1018.3 mb 0.00 in0.0 mm 0.00 in0.0 mm 0.00 in0.0 mm
08:20 AM 73.6°F23.1°C 64.3°F17.9°C 73% 8.0 mph ENE12.9 kmh ENE 10.0 mph16.1 kmh 30.07 in1018.3 mb 0.00 in0.0 mm 0.00 in0.0 mm 0.00 in0.0 mm
08:15 AM 73.3°F22.9°C 64.4°F18.0°C 74% 4.0 mph ENE6.4 kmh ENE 10.0 mph16.1 kmh 30.07 in1018.3 mb 0.00 in0.0 mm 0.00 in0.0 mm 0.00 in0.0 mm
08:10 AM 73.5°F23.1°C 65.0°F18.3°C 75% 10.0 mph E16.1 kmh E 10.0 mph16.1 kmh 30.07 in1018.3 mb 0.00 in0.0 mm 0.00 in0.0 mm 0.00 in0.0 mm
08:05 AM 73.3°F22.9°C 64.8°F18.2°C 75% 4.0 mph ESE6.4 kmh ESE 9.0 mph14.5 kmh 30.07 in1018.3 mb 0.00 in0.0 mm 0.00 in0.0 mm 0.00 in0.0 mm
08:00 AM 73.3°F22.9°C 64.1°F17.8°C 73% 6.0 mph ESE9.7 kmh ESE 8.0 mph12.9 kmh 30.07 in1018.3 mb 0.00 in0.0 mm 0.00 in0.0 mm 0.00 in0.0 mm
07:55 AM 73.2°F22.9°C 65.1°F18.4°C 76% 4.0 mph ENE6.4 kmh ENE 9.0 mph14.5 kmh 30.07 in1018.3 mb 0.00 in0.0 mm 0.00 in0.0 mm 0.00 in0.0 mm
07:50 AM 72.7°F22.6°C 64.3°F17.9°C 75% 5.0 mph ESE8.0 kmh ESE 7.0 mph11.3 kmh 30.07 in1018.3 mb 0.00 in0.0 mm 0.00 in0.0 mm 0.00 in0.0 mm
07:45 AM 72.4°F22.4°C 64.7°F18.2°C 77% 3.0 mph E4.8 kmh E 10.0 mph16.1 kmh 30.07 in1018.3 mb 0.00 in0.0 mm 0.00 in0.0 mm 0.00 in0.0 mm
07:40 AM 72.1°F22.3°C 64.8°F18.2°C 78% 4.0 mph E6.4 kmh E 6.0 mph9.7 kmh 30.07 in1018.3 mb 0.00 in0.0 mm 0.00 in0.0 mm 0.00 in0.0 mm
07:35 AM 71.6°F22.0°C 63.9°F17.7°C 77% 2.0 mph NE3.2 kmh NE 10.0 mph16.1 kmh 30.07 in1018.3 mb 0.00 in0.0 mm 0.00 in0.0 mm 0.00 in0.0 mm
07:30 AM 71.8°F22.1°C 64.1°F17.8°C 77% 3.0 mph E4.8 kmh E 7.0 mph11.3 kmh 30.07 in1018.3 mb 0.00 in0.0 mm 0.00 in0.0 mm 0.00 in0.0 mm
07:25 AM 71.7°F22.1°C 64.4°F18.0°C 78% 6.0 mph NE9.7 kmh NE 7.0 mph11.3 kmh 30.07 in1018.3 mb 0.00 in0.0 mm 0.00 in0.0 mm 0.00 in0.0 mm
07:20 AM 71.2°F21.8°C 64.3°F17.9°C 79% 1.0 mph E1.6 kmh E 7.0 mph11.3 kmh 30.07 in1018.3 mb 0.00 in0.0 mm 0.00 in0.0 mm 0.00 in0.0 mm
07:15 AM 70.9°F21.6°C 63.6°F17.6°C 78% 3.0 mph ESE4.8 kmh ESE 8.0 mph12.9 kmh 30.07 in1018.3 mb 0.00 in0.0 mm 0.00 in0.0 mm 0.00 in0.0 mm
07:10 AM 70.7°F21.5°C 63.8°F17.7°C 79% 2.0 mph E3.2 kmh E 6.0 mph9.7 kmh 30.07 in1018.3 mb 0.00 in0.0 mm 0.00 in0.0 mm 0.00 in0.0 mm
07:05 AM 70.8°F21.6°C 63.9°F17.7°C 79% 4.0 mph ESE6.4 kmh ESE 9.0 mph14.5 kmh 30.07 in1018.3 mb 0.00 in0.0 mm 0.00 in0.0 mm 0.00 in0.0 mm
07:00 AM 70.6°F21.4°C 64.1°F17.8°C 80% 6.0 mph ENE9.7 kmh ENE 9.0 mph14.5 kmh 30.06 in1017.9 mb 0.00 in0.0 mm 0.00 in0.0 mm 0.00 in0.0 mm
06:55 AM 70.4°F21.3°C 64.2°F17.9°C 81% 2.0 mph ESE3.2 kmh ESE 6.0 mph9.7 kmh 30.06 in1017.9 mb 0.00 in0.0 mm 0.00 in0.0 mm 0.00 in0.0 mm
06:50 AM 69.8°F21.0°C 64.3°F17.9°C 83% 2.0 mph ENE3.2 kmh ENE 5.0 mph8.0 kmh 30.06 in1017.9 mb 0.00 in0.0 mm 0.00 in0.0 mm 0.00 in0.0 mm
06:45 AM 69.2°F20.7°C 63.8°F17.7°C 83% 3.0 mph ENE4.8 kmh ENE 7.0 mph11.3 kmh 30.06 in1017.9 mb 0.00 in0.0 mm 0.00 in0.0 mm 0.00 in0.0 mm
06:40 AM 68.6°F20.3°C 63.5°F17.5°C 84% 6.0 mph E9.7 kmh E 9.0 mph14.5 kmh 30.06 in1017.9 mb 0.00 in0.0 mm 0.00 in0.0 mm 0.00 in0.0 mm
06:35 AM 68.3°F20.2°C 63.2°F17.3°C 84% 6.0 mph E9.7 kmh E 10.0 mph16.1 kmh 30.06 in1017.9 mb 0.00 in0.0 mm 0.00 in0.0 mm 0.00 in0.0 mm
06:30 AM 67.9°F19.9°C 63.2°F17.3°C 85% 4.0 mph SE6.4 kmh SE 8.0 mph12.9 kmh 30.06 in1017.9 mb 0.00 in0.0 mm 0.00 in0.0 mm 0.00 in0.0 mm
06:25 AM 67.7°F19.8°C 62.6°F17.0°C 84% 5.0 mph NE8.0 kmh NE 7.0 mph11.3 kmh 30.06 in1017.9 mb 0.00 in0.0 mm 0.00 in0.0 mm 0.00 in0.0 mm
06:20 AM 67.5°F19.7°C 62.8°F17.1°C 85% 3.0 mph E4.8 kmh E 7.0 mph11.3 kmh 30.06 in1017.9 mb 0.00 in0.0 mm 0.00 in0.0 mm 0.00 in0.0 mm
06:15 AM 67.2°F19.6°C 62.5°F16.9°C 85% 6.0 mph E9.7 kmh E 6.0 mph9.7 kmh 30.06 in1017.9 mb 0.00 in0.0 mm 0.00 in0.0 mm 0.00 in0.0 mm
06:10 AM 66.6°F19.2°C 62.2°F16.8°C 86% 1.0 mph ESE1.6 kmh ESE 5.0 mph8.0 kmh 30.06 in1017.9 mb 0.00 in0.0 mm 0.00 in0.0 mm 0.00 in0.0 mm
06:05 AM 66.1°F18.9°C 62.4°F16.9°C 88% Calm Calm 4.0 mph6.4 kmh 30.07 in1018.3 mb 0.00 in0.0 mm 0.00 in0.0 mm 0.00 in0.0 mm
06:00 AM 65.3°F18.5°C 61.9°F16.6°C 89% Calm Calm 2.0 mph3.2 kmh 30.07 in1018.3 mb 0.00 in0.0 mm 0.00 in0.0 mm 0.00 in0.0 mm
05:55 AM 64.4°F18.0°C 61.3°F16.3°C 90% 3.0 mph ESE4.8 kmh ESE 3.0 mph4.8 kmh 30.07 in1018.3 mb 0.00 in0.0 mm 0.00 in0.0 mm 0.00 in0.0 mm
05:50 AM 63.6°F17.6°C 61.2°F16.2°C 92% Calm Calm 3.0 mph4.8 kmh 30.07 in1018.3 mb 0.00 in0.0 mm 0.00 in0.0 mm 0.00 in0.0 mm
05:45 AM 62.9°F17.2°C 60.5°F15.8°C 92% 1.0 mph SE1.6 kmh SE 3.0 mph4.8 kmh 30.07 in1018.3 mb 0.00 in0.0 mm 0.00 in0.0 mm 0.00 in0.0 mm
05:40 AM 62.6°F17.0°C 60.5°F15.8°C 93% 1.0 mph ESE1.6 kmh ESE 4.0 mph6.4 kmh 30.07 in1018.3 mb 0.00 in0.0 mm 0.00 in0.0 mm 0.00 in0.0 mm
05:35 AM 62.4°F16.9°C 60.3°F15.7°C 93% Calm Calm 3.0 mph4.8 kmh 30.07 in1018.3 mb 0.00 in0.0 mm 0.00 in0.0 mm 0.00 in0.0 mm
05:30 AM 62.2°F16.8°C 60.1°F15.6°C 93% 1.0 mph ESE1.6 kmh ESE 4.0 mph6.4 kmh 30.07 in1018.3 mb 0.00 in0.0 mm 0.00 in0.0 mm 0.00 in0.0 mm
05:25 AM 62.1°F16.7°C 59.7°F15.4°C 92% 2.0 mph ESE3.2 kmh ESE 4.0 mph6.4 kmh 30.07 in1018.3 mb 0.00 in0.0 mm 0.00 in0.0 mm 0.00 in0.0 mm
05:20 AM 62.0°F16.7°C 59.6°F15.3°C 92% 2.0 mph E3.2 kmh E 4.0 mph6.4 kmh 30.07 in1018.3 mb 0.00 in0.0 mm 0.00 in0.0 mm 0.00 in0.0 mm
05:15 AM 61.9°F16.6°C 59.5°F15.3°C 92% 3.0 mph ESE4.8 kmh ESE 5.0 mph8.0 kmh 30.07 in1018.3 mb 0.00 in0.0 mm 0.00 in0.0 mm 0.00 in0.0 mm
05:10 AM 61.9°F16.6°C 59.5°F15.3°C 92% 4.0 mph E6.4 kmh E 6.0 mph9.7 kmh 30.07 in1018.3 mb 0.00 in0.0 mm 0.00 in0.0 mm 0.00 in0.0 mm
05:05 AM 61.9°F16.6°C 59.5°F15.3°C 92% 2.0 mph E3.2 kmh E 6.0 mph9.7 kmh 30.07 in1018.3 mb 0.00 in0.0 mm 0.00 in0.0 mm 0.00 in0.0 mm
05:00 AM 62.0°F16.7°C 59.6°F15.3°C 92% 3.0 mph E4.8 kmh E 6.0 mph9.7 kmh 30.06 in1017.9 mb 0.00 in0.0 mm 0.00 in0.0 mm 0.00 in0.0 mm
04:55 AM 61.9°F16.6°C 59.8°F15.4°C 93% 2.0 mph E3.2 kmh E 8.0 mph12.9 kmh 30.06 in1017.9 mb 0.00 in0.0 mm 0.00 in0.0 mm 0.00 in0.0 mm
04:50 AM 61.9°F16.6°C 59.8°F15.4°C 93% 5.0 mph ENE8.0 kmh ENE 8.0 mph12.9 kmh 30.06 in1017.9 mb 0.00 in0.0 mm 0.00 in0.0 mm 0.00 in0.0 mm
04:45 AM 61.8°F16.6°C 59.7°F15.4°C 93% 4.0 mph SE6.4 kmh SE 7.0 mph11.3 kmh 30.06 in1017.9 mb 0.00 in0.0 mm 0.00 in0.0 mm 0.00 in0.0 mm
04:40 AM 61.8°F16.6°C 59.7°F15.4°C 93% 4.0 mph E6.4 kmh E 9.0 mph14.5 kmh 30.06 in1017.9 mb 0.00 in0.0 mm 0.00 in0.0 mm 0.00 in0.0 mm
04:35 AM 61.8°F16.6°C 59.7°F15.4°C 93% 3.0 mph E4.8 kmh E 8.0 mph12.9 kmh 30.06 in1017.9 mb 0.00 in0.0 mm 0.00 in0.0 mm 0.00 in0.0 mm
04:30 AM 61.7°F16.5°C 59.6°F15.3°C 93% 1.0 mph ENE1.6 kmh ENE 7.0 mph11.3 kmh 30.06 in1017.9 mb 0.00 in0.0 mm 0.00 in0.0 mm 0.00 in0.0 mm
04:25 AM 61.7°F16.5°C 59.6°F15.3°C 93% 4.0 mph E6.4 kmh E 9.0 mph14.5 kmh 30.06 in1017.9 mb 0.00 in0.0 mm 0.00 in0.0 mm 0.00 in0.0 mm
04:20 AM 61.9°F16.6°C 59.8°F15.4°C 93% 8.0 mph ESE12.9 kmh ESE 8.0 mph12.9 kmh 30.06 in1017.9 mb 0.00 in0.0 mm 0.00 in0.0 mm 0.00 in0.0 mm
04:15 AM 62.0°F16.7°C 59.6°F15.3°C 92% 3.0 mph E4.8 kmh E 7.0 mph11.3 kmh 30.06 in1017.9 mb 0.00 in0.0 mm 0.00 in0.0 mm 0.00 in0.0 mm
04:10 AM 62.1°F16.7°C 59.7°F15.4°C 92% 3.0 mph ESE4.8 kmh ESE 6.0 mph9.7 kmh 30.06 in1017.9 mb 0.00 in0.0 mm 0.00 in0.0 mm 0.00 in0.0 mm
04:05 AM 62.1°F16.7°C 60.0°F15.6°C 93% 4.0 mph E6.4 kmh E 6.0 mph9.7 kmh 30.06 in1017.9 mb 0.00 in0.0 mm 0.00 in0.0 mm 0.00 in0.0 mm
04:00 AM 62.2°F16.8°C 60.1°F15.6°C 93% 4.0 mph E6.4 kmh E 7.0 mph11.3 kmh 30.07 in1018.3 mb 0.00 in0.0 mm 0.00 in0.0 mm 0.00 in0.0 mm
03:55 AM 62.2°F16.8°C 60.1°F15.6°C 93% 6.0 mph ESE9.7 kmh ESE 10.0 mph16.1 kmh 30.06 in1017.9 mb 0.00 in0.0 mm 0.00 in0.0 mm 0.00 in0.0 mm
03:50 AM 62.2°F16.8°C 60.1°F15.6°C 93% 4.0 mph E6.4 kmh E 7.0 mph11.3 kmh 30.06 in1017.9 mb 0.00 in0.0 mm 0.00 in0.0 mm 0.00 in0.0 mm
03:45 AM 62.1°F16.7°C 60.0°F15.6°C 93% 1.0 mph E1.6 kmh E 7.0 mph11.3 kmh 30.06 in1017.9 mb 0.00 in0.0 mm 0.00 in0.0 mm 0.00 in0.0 mm
03:40 AM 62.1°F16.7°C 60.0°F15.6°C 93% 4.0 mph ESE6.4 kmh ESE 6.0 mph9.7 kmh 30.06 in1017.9 mb 0.00 in0.0 mm 0.00 in0.0 mm 0.00 in0.0 mm
03:35 AM 62.0°F16.7°C 59.9°F15.5°C 93% 3.0 mph NE4.8 kmh NE 6.0 mph9.7 kmh 30.06 in1017.9 mb 0.00 in0.0 mm 0.00 in0.0 mm 0.00 in0.0 mm
03:30 AM 62.1°F16.7°C 60.0°F15.6°C 93% 5.0 mph SE8.0 kmh SE 6.0 mph9.7 kmh 30.06 in1017.9 mb 0.00 in0.0 mm 0.00 in0.0 mm 0.00 in0.0 mm
03:25 AM 62.2°F16.8°C 60.1°F15.6°C 93% 3.0 mph ESE4.8 kmh ESE 6.0 mph9.7 kmh 30.06 in1017.9 mb 0.00 in0.0 mm 0.00 in0.0 mm 0.00 in0.0 mm
03:20 AM 62.2°F16.8°C 59.8°F15.4°C 92% 3.0 mph E4.8 kmh E 5.0 mph8.0 kmh 30.06 in1017.9 mb 0.00 in0.0 mm 0.00 in0.0 mm 0.00 in0.0 mm
03:15 AM 62.3°F16.8°C 59.9°F15.5°C 92% 5.0 mph E8.0 kmh E 5.0 mph8.0 kmh 30.06 in1017.9 mb 0.00 in0.0 mm 0.00 in0.0 mm 0.00 in0.0 mm
03:10 AM 62.4°F16.9°C 60.0°F15.6°C 92% 4.0 mph SE6.4 kmh SE 6.0 mph9.7 kmh 30.06 in1017.9 mb 0.00 in0.0 mm 0.00 in0.0 mm 0.00 in0.0 mm
03:05 AM 62.5°F16.9°C 60.1°F15.6°C 92% 4.0 mph E6.4 kmh E 6.0 mph9.7 kmh 30.06 in1017.9 mb 0.00 in0.0 mm 0.00 in0.0 mm 0.00 in0.0 mm
03:00 AM 62.6°F17.0°C 60.2°F15.7°C 92% 4.0 mph ESE6.4 kmh ESE 6.0 mph9.7 kmh 30.06 in1017.9 mb 0.00 in0.0 mm 0.00 in0.0 mm 0.00 in0.0 mm
02:55 AM 62.6°F17.0°C 60.5°F15.8°C 93% 6.0 mph E9.7 kmh E 6.0 mph9.7 kmh 30.06 in1017.9 mb 0.00 in0.0 mm 0.00 in0.0 mm 0.00 in0.0 mm
02:50 AM 62.5°F16.9°C 60.4°F15.8°C 93% 6.0 mph ESE9.7 kmh ESE 7.0 mph11.3 kmh 30.06 in1017.9 mb 0.00 in0.0 mm 0.00 in0.0 mm 0.00 in0.0 mm
02:45 AM 62.5°F16.9°C 60.4°F15.8°C 93% 5.0 mph E8.0 kmh E 6.0 mph9.7 kmh 30.06 in1017.9 mb 0.00 in0.0 mm 0.00 in0.0 mm 0.00 in0.0 mm
02:40 AM 62.5°F16.9°C 60.4°F15.8°C 93% 4.0 mph E6.4 kmh E 6.0 mph9.7 kmh 30.06 in1017.9 mb 0.00 in0.0 mm 0.00 in0.0 mm 0.00 in0.0 mm
02:35 AM 62.4°F16.9°C 60.3°F15.7°C 93% 1.0 mph E1.6 kmh E 5.0 mph8.0 kmh 30.06 in1017.9 mb 0.00 in0.0 mm 0.00 in0.0 mm 0.00 in0.0 mm
02:30 AM 62.5°F16.9°C 60.4°F15.8°C 93% 2.0 mph E3.2 kmh E 5.0 mph8.0 kmh 30.06 in1017.9 mb 0.00 in0.0 mm 0.00 in0.0 mm 0.00 in0.0 mm
02:25 AM 62.5°F16.9°C 60.4°F15.8°C 93% 3.0 mph E4.8 kmh E 4.0 mph6.4 kmh 30.06 in1017.9 mb 0.00 in0.0 mm 0.00 in0.0 mm 0.00 in0.0 mm
02:20 AM 62.6°F17.0°C 60.5°F15.8°C 93% 5.0 mph E8.0 kmh E 5.0 mph8.0 kmh 30.06 in1017.9 mb 0.00 in0.0 mm 0.00 in0.0 mm 0.00 in0.0 mm
02:15 AM 62.7°F17.1°C 60.6°F15.9°C 93% Calm Calm 3.0 mph4.8 kmh 30.06 in1017.9 mb 0.00 in0.0 mm 0.00 in0.0 mm 0.00 in0.0 mm
02:10 AM 62.7°F17.1°C 60.6°F15.9°C 93% 2.0 mph E3.2 kmh E 4.0 mph6.4 kmh 30.06 in1017.9 mb 0.00 in0.0 mm 0.00 in0.0 mm 0.00 in0.0 mm
02:05 AM 62.8°F17.1°C 60.4°F15.8°C 92% 1.0 mph E1.6 kmh E 5.0 mph8.0 kmh 30.06 in1017.9 mb 0.00 in0.0 mm 0.00 in0.0 mm 0.00 in0.0 mm
02:00 AM 63.0°F17.2°C 60.6°F15.9°C 92% 4.0 mph NE6.4 kmh NE 4.0 mph6.4 kmh 30.07 in1018.3 mb 0.00 in0.0 mm 0.00 in0.0 mm 0.00 in0.0 mm
01:55 AM 63.1°F17.3°C 60.7°F15.9°C 92% 1.0 mph ENE1.6 kmh ENE 4.0 mph6.4 kmh 30.07 in1018.3 mb 0.00 in0.0 mm 0.00 in0.0 mm 0.00 in0.0 mm
01:50 AM 63.1°F17.3°C 60.7°F15.9°C 92% 2.0 mph NE3.2 kmh NE 5.0 mph8.0 kmh 30.07 in1018.3 mb 0.00 in0.0 mm 0.00 in0.0 mm 0.00 in0.0 mm
01:45 AM 63.2°F17.3°C 60.8°F16.0°C 92% 2.0 mph E3.2 kmh E 5.0 mph8.0 kmh 30.07 in1018.3 mb 0.00 in0.0 mm 0.00 in0.0 mm 0.00 in0.0 mm
01:40 AM 63.3°F17.4°C 60.9°F16.1°C 92% 2.0 mph ENE3.2 kmh ENE 5.0 mph8.0 kmh 30.07 in1018.3 mb 0.00 in0.0 mm 0.00 in0.0 mm 0.00 in0.0 mm
01:35 AM 63.3°F17.4°C 60.9°F16.1°C 92% 4.0 mph ENE6.4 kmh ENE 7.0 mph11.3 kmh 30.07 in1018.3 mb 0.00 in0.0 mm 0.00 in0.0 mm 0.00 in0.0 mm
01:30 AM 63.4°F17.4°C 61.0°F16.1°C 92% Calm Calm 5.0 mph8.0 kmh 30.07 in1018.3 mb 0.00 in0.0 mm 0.00 in0.0 mm 0.00 in0.0 mm
01:25 AM 63.5°F17.5°C 61.1°F16.2°C 92% 4.0 mph ENE6.4 kmh ENE 6.0 mph9.7 kmh 30.06 in1017.9 mb 0.00 in0.0 mm 0.00 in0.0 mm 0.00 in0.0 mm
01:20 AM 63.6°F17.6°C 61.2°F16.2°C 92% 1.0 mph E1.6 kmh E 7.0 mph11.3 kmh 30.06 in1017.9 mb 0.00 in0.0 mm 0.00 in0.0 mm 0.00 in0.0 mm
01:15 AM 63.6°F17.6°C 61.2°F16.2°C 92% 6.0 mph E9.7 kmh E 6.0 mph9.7 kmh 30.06 in1017.9 mb 0.00 in0.0 mm 0.00 in0.0 mm 0.00 in0.0 mm
01:10 AM 63.7°F17.6°C 61.3°F16.3°C 92% 5.0 mph SE8.0 kmh SE 7.0 mph11.3 kmh 30.06 in1017.9 mb 0.00 in0.0 mm 0.00 in0.0 mm 0.00 in0.0 mm
01:05 AM 63.8°F17.7°C 61.4°F16.3°C 92% 5.0 mph SE8.0 kmh SE 6.0 mph9.7 kmh 30.06 in1017.9 mb 0.00 in0.0 mm 0.00 in0.0 mm 0.00 in0.0 mm
01:00 AM 63.8°F17.7°C 61.4°F16.3°C 92% 4.0 mph E6.4 kmh E 6.0 mph9.7 kmh 30.06 in1017.9 mb 0.00 in0.0 mm 0.00 in0.0 mm 0.00 in0.0 mm
12:55 AM 63.8°F17.7°C 61.1°F16.2°C 91% 4.0 mph E6.4 kmh E 6.0 mph9.7 kmh 30.06 in1017.9 mb 0.00 in0.0 mm 0.00 in0.0 mm 0.00 in0.0 mm
12:50 AM 64.0°F17.8°C 61.3°F16.3°C 91% 4.0 mph E6.4 kmh E 5.0 mph8.0 kmh 30.06 in1017.9 mb 0.00 in0.0 mm 0.00 in0.0 mm 0.00 in0.0 mm
12:45 AM 64.0°F17.8°C 61.3°F16.3°C 91% 3.0 mph ENE4.8 kmh ENE 6.0 mph9.7 kmh 30.06 in1017.9 mb 0.00 in0.0 mm 0.00 in0.0 mm 0.00 in0.0 mm
12:40 AM 64.2°F17.9°C 61.5°F16.4°C 91% 2.0 mph E3.2 kmh E 5.0 mph8.0 kmh 30.07 in1018.3 mb 0.00 in0.0 mm 0.00 in0.0 mm 0.00 in0.0 mm
12:35 AM 64.3°F17.9°C 61.2°F16.2°C 90% 3.0 mph ESE4.8 kmh ESE 5.0 mph8.0 kmh 30.07 in1018.3 mb 0.00 in0.0 mm 0.00 in0.0 mm 0.00 in0.0 mm
12:30 AM 64.4°F18.0°C 61.3°F16.3°C 90% 1.0 mph E1.6 kmh E 6.0 mph9.7 kmh 30.07 in1018.3 mb 0.00 in0.0 mm 0.00 in0.0 mm 0.00 in0.0 mm
12:25 AM 64.5°F18.1°C 61.4°F16.3°C 90% 3.0 mph E4.8 kmh E 7.0 mph11.3 kmh 30.06 in1017.9 mb 0.00 in0.0 mm 0.00 in0.0 mm 0.00 in0.0 mm
12:20 AM 64.5°F18.1°C 61.4°F16.3°C 90% 3.0 mph E4.8 kmh E 7.0 mph11.3 kmh 30.06 in1017.9 mb 0.00 in0.0 mm 0.00 in0.0 mm 0.00 in0.0 mm
12:15 AM 64.5°F18.1°C 61.4°F16.3°C 90% 1.0 mph ENE1.6 kmh ENE 7.0 mph11.3 kmh 30.06 in1017.9 mb 0.00 in0.0 mm 0.00 in0.0 mm 0.00 in0.0 mm
12:10 AM 64.5°F18.1°C 61.4°F16.3°C 90% 2.0 mph ESE3.2 kmh ESE 6.0 mph9.7 kmh 30.06 in1017.9 mb 0.00 in0.0 mm 0.00 in0.0 mm 0.00 in0.0 mm
12:05 AM 64.5°F18.1°C 61.4°F16.3°C 90% 2.0 mph E3.2 kmh E 5.0 mph8.0 kmh 30.06 in1017.9 mb 0.00 in0.0 mm 0.00 in0.0 mm 0.00 in0.0 mm
12:00 AM 64.5°F18.1°C 61.4°F16.3°C 90% 2.0 mph E3.2 kmh E 6.0 mph9.7 kmh 30.06 in1017.9 mb 0.00 in0.0 mm 0.00 in0.0 mm 0.00 in0.0 mm